createdAt,value
2023-01-08T00:01:11.790Z,66.53
2023-01-08T00:03:40.725Z,66.53
2023-01-08T00:06:11.859Z,67.35
2023-01-08T00:08:39.721Z,67.13
2023-01-08T00:11:07.793Z,65.95
2023-01-08T00:13:36.084Z,65.67
2023-01-08T00:16:05.303Z,66.54
2023-01-08T00:18:34.573Z,66.80
2023-01-08T00:21:03.154Z,66.25
2023-01-08T00:23:31.629Z,65.91
2023-01-08T00:26:02.326Z,65.73
2023-01-08T00:28:31.030Z,65.82
2023-01-08T00:30:59.131Z,65.48
2023-01-08T00:33:27.209Z,65.48
2023-01-08T00:35:56.502Z,65.93
2023-01-08T00:38:26.975Z,65.38
2023-01-08T00:40:55.000Z,65.68
2023-01-08T00:43:23.052Z,66.13
2023-01-08T00:45:51.893Z,65.36
2023-01-08T00:48:19.754Z,65.43
2023-01-08T00:50:47.607Z,66.17
2023-01-08T00:53:17.123Z,66.17
2023-01-08T00:55:45.201Z,67.35
2023-01-08T00:58:13.647Z,66.35
2023-01-08T01:00:41.516Z,66.80
2023-01-08T01:03:09.396Z,66.82
2023-01-08T01:05:37.286Z,67.72
2023-01-08T01:08:05.561Z,68.19
2023-01-08T01:10:34.779Z,67.40
2023-01-08T01:13:02.700Z,67.13
2023-01-08T01:15:30.604Z,66.15
2023-01-08T01:17:58.520Z,68.00
2023-01-08T01:20:26.448Z,68.17
2023-01-08T01:22:54.289Z,68.13
2023-01-08T01:25:22.214Z,68.17
2023-01-08T01:27:51.479Z,67.52
2023-01-08T01:30:19.337Z,67.44
2023-01-08T01:32:47.253Z,67.72
2023-01-08T01:35:15.310Z,67.75
2023-01-08T01:37:43.178Z,67.12
2023-01-08T01:40:12.058Z,68.30
2023-01-08T01:42:44.127Z,67.62
2023-01-08T01:45:21.151Z,67.38
2023-01-08T01:47:53.805Z,67.02
2023-01-08T01:50:26.856Z,67.04
2023-01-08T01:53:02.176Z,67.52
2023-01-08T01:55:31.749Z,68.44
2023-01-08T01:58:05.509Z,67.90
2023-01-08T02:00:36.150Z,67.77
2023-01-08T02:03:06.921Z,67.81
2023-01-08T02:05:44.590Z,68.75
2023-01-08T02:08:14.316Z,68.15
2023-01-08T02:10:49.121Z,69.52
2023-01-08T02:13:24.092Z,68.19
2023-01-08T02:15:59.263Z,68.69
2023-01-08T02:18:33.678Z,68.94
2023-01-08T02:21:08.878Z,68.32
2023-01-08T02:23:46.472Z,68.94
2023-01-08T02:26:20.146Z,69.81
2023-01-08T02:28:53.817Z,70.43
2023-01-08T02:31:24.009Z,69.66
2023-01-08T02:33:51.849Z,69.15
2023-01-08T02:36:31.514Z,69.52
2023-01-08T02:39:09.920Z,68.64
2023-01-08T02:41:49.078Z,68.23
2023-01-08T02:44:22.778Z,68.68
2023-01-08T02:46:53.341Z,69.18
2023-01-08T02:49:24.681Z,69.47
2023-01-08T02:51:56.482Z,69.44
2023-01-08T02:54:28.995Z,69.14
2023-01-08T02:57:02.298Z,68.43
2023-01-08T02:59:32.515Z,69.28
2023-01-08T03:02:01.943Z,69.44
2023-01-08T03:04:35.156Z,69.19
2023-01-08T03:07:03.705Z,69.78
2023-01-08T03:09:31.891Z,69.60
2023-01-08T03:12:06.153Z,70.29
2023-01-08T03:14:41.125Z,69.92
2023-01-08T03:17:15.630Z,70.35
2023-01-08T03:19:46.273Z,69.96
2023-01-08T03:22:17.552Z,70.24
2023-01-08T03:24:49.480Z,69.71
2023-01-08T03:27:25.766Z,69.37
2023-01-08T03:29:56.527Z,69.10
2023-01-08T03:32:26.487Z,70.01
2023-01-08T03:34:57.175Z,69.44
2023-01-08T03:37:29.401Z,69.22
2023-01-08T03:40:00.282Z,69.96
2023-01-08T03:42:32.451Z,69.43
2023-01-08T03:45:00.641Z,69.20
2023-01-08T03:47:30.152Z,71.24
2023-01-08T03:50:01.598Z,70.48
2023-01-08T03:52:32.797Z,69.88
2023-01-08T03:55:00.974Z,69.53
2023-01-08T03:57:30.178Z,69.72
2023-01-08T03:59:58.035Z,71.23
2023-01-08T04:02:26.008Z,69.92
2023-01-08T04:04:53.945Z,70.03
2023-01-08T04:07:22.070Z,69.75
2023-01-08T04:09:49.903Z,70.03
2023-01-08T04:12:17.817Z,70.47
2023-01-08T04:14:47.066Z,71.22
2023-01-08T04:17:15.009Z,71.11
2023-01-08T04:19:43.093Z,71.08
2023-01-08T04:22:11.731Z,70.37
2023-01-08T04:24:39.654Z,70.19
2023-01-08T04:27:07.444Z,70.64
2023-01-08T04:29:35.285Z,70.31
2023-01-08T04:32:04.803Z,70.37
2023-01-08T04:34:32.691Z,70.28
2023-01-08T04:37:00.626Z,70.30
2023-01-08T04:39:28.717Z,69.84
2023-01-08T04:41:56.682Z,69.61
2023-01-08T04:44:24.612Z,70.24
2023-01-08T04:46:52.467Z,70.01
2023-01-08T04:49:21.722Z,70.18
2023-01-08T04:51:49.654Z,70.78
2023-01-08T04:54:17.674Z,70.46
2023-01-08T04:56:45.557Z,70.63
2023-01-08T04:59:13.456Z,69.89
2023-01-08T05:01:41.475Z,70.43
2023-01-08T05:04:09.383Z,69.37
2023-01-08T05:06:38.555Z,70.19
2023-01-08T05:09:06.503Z,69.89
2023-01-08T05:11:35.567Z,69.55
2023-01-08T05:14:03.446Z,69.17
2023-01-08T05:16:32.111Z,69.37
2023-01-08T05:19:00.033Z,70.12
2023-01-08T05:21:27.866Z,68.93
2023-01-08T05:23:57.129Z,69.18
2023-01-08T05:26:25.018Z,69.32
2023-01-08T05:28:52.913Z,68.84
2023-01-08T05:31:20.881Z,68.68
2023-01-08T05:33:48.784Z,68.52
2023-01-08T05:36:16.662Z,68.57
2023-01-08T05:38:44.563Z,68.37
2023-01-08T05:41:13.899Z,67.99
2023-01-08T05:43:41.767Z,67.72
2023-01-08T05:46:09.650Z,67.92
2023-01-08T05:48:37.950Z,67.68
2023-01-08T05:51:06.331Z,67.81
2023-01-08T05:53:34.372Z,66.67
2023-01-08T05:56:03.612Z,66.75
2023-01-08T05:58:33.270Z,66.89
2023-01-08T06:01:06.218Z,67.20
2023-01-08T06:03:34.122Z,66.83
2023-01-08T06:06:03.316Z,66.71
2023-01-08T06:08:32.232Z,66.30
2023-01-08T06:11:00.985Z,66.65
2023-01-08T06:13:28.992Z,66.30
2023-01-08T06:15:59.613Z,66.11
2023-01-08T06:18:27.850Z,65.91
2023-01-08T06:20:55.782Z,65.98
2023-01-08T06:23:23.626Z,65.76
2023-01-08T06:25:53.521Z,65.95
2023-01-08T06:28:21.419Z,66.17
2023-01-08T06:30:49.578Z,65.74
2023-01-08T06:33:21.587Z,65.75
2023-01-08T06:35:49.651Z,65.70
2023-01-08T06:38:19.222Z,65.71
2023-01-08T06:40:47.735Z,65.62
2023-01-08T06:43:16.093Z,65.40
2023-01-08T06:45:43.972Z,64.55
2023-01-08T06:48:11.829Z,64.54
2023-01-08T06:50:41.093Z,64.26
2023-01-08T06:53:08.970Z,64.77
2023-01-08T06:55:38.657Z,64.55
2023-01-08T06:58:06.629Z,64.54
2023-01-08T07:00:34.561Z,64.82
2023-01-08T07:03:02.575Z,64.73
2023-01-08T07:05:30.521Z,64.76
2023-01-08T07:07:59.728Z,64.29
2023-01-08T07:10:27.971Z,64.84
2023-01-08T07:12:55.820Z,65.11
2023-01-08T07:15:23.662Z,65.38
2023-01-08T07:17:52.901Z,65.49
2023-01-08T07:20:20.785Z,64.07
2023-01-08T07:22:48.647Z,64.77
2023-01-08T07:25:18.082Z,64.45
2023-01-08T07:27:46.141Z,64.08
2023-01-08T07:30:28.842Z,64.08
2023-01-08T07:33:00.203Z,64.86
2023-01-08T07:35:28.315Z,65.39
2023-01-08T07:37:56.802Z,68.18
2023-01-08T07:40:26.147Z,67.82
2023-01-08T07:43:00.568Z,68.26
2023-01-08T07:45:29.020Z,68.89
2023-01-08T07:47:58.050Z,68.17
2023-01-08T07:50:26.261Z,69.01
2023-01-08T07:52:54.178Z,70.21
2023-01-08T07:55:22.049Z,71.23
2023-01-08T07:57:51.341Z,72.06
2023-01-08T08:00:19.880Z,72.40
2023-01-08T08:02:47.807Z,72.11
2023-01-08T08:05:17.770Z,71.81
2023-01-08T08:07:45.696Z,72.20
2023-01-08T08:10:13.653Z,72.84
2023-01-08T08:12:41.535Z,71.96
2023-01-08T08:15:11.770Z,71.78
2023-01-08T08:17:39.645Z,72.63
2023-01-08T08:20:08.543Z,73.37
2023-01-08T08:22:36.411Z,73.24
2023-01-08T08:25:04.499Z,73.45
2023-01-08T08:27:32.356Z,73.44
2023-01-08T08:30:00.215Z,75.33
2023-01-08T08:32:29.480Z,73.43
2023-01-08T08:34:57.739Z,72.92
2023-01-08T08:37:25.641Z,73.54
2023-01-08T08:39:53.714Z,72.90
2023-01-08T08:42:21.649Z,72.89
2023-01-08T08:44:49.474Z,72.25
2023-01-08T08:47:17.312Z,72.82
2023-01-08T08:49:46.611Z,71.83
2023-01-08T08:52:14.468Z,72.84
2023-01-08T08:54:42.379Z,72.77
2023-01-08T08:57:10.741Z,72.93
2023-01-08T08:59:38.666Z,73.82
2023-01-08T09:02:07.126Z,73.59
2023-01-08T09:04:35.640Z,72.05
2023-01-08T09:07:04.891Z,72.16
2023-01-08T09:09:32.817Z,71.88
2023-01-08T09:12:00.870Z,71.85
2023-01-08T09:14:29.251Z,71.25
2023-01-08T09:16:57.162Z,70.94
2023-01-08T09:19:25.082Z,71.98
2023-01-08T09:21:53.053Z,70.59
2023-01-08T09:24:22.266Z,70.75
2023-01-08T09:26:50.104Z,70.51
2023-01-08T09:29:17.995Z,71.56
2023-01-08T09:31:46.704Z,71.30
2023-01-08T09:34:14.591Z,71.71
2023-01-08T09:36:42.462Z,73.00
2023-01-08T09:39:10.456Z,71.44
2023-01-08T09:41:46.260Z,71.72
2023-01-08T09:44:18.075Z,71.26
2023-01-08T09:46:47.918Z,71.45
2023-01-08T09:49:22.419Z,70.66
2023-01-08T09:51:50.626Z,71.70
2023-01-08T09:54:18.685Z,71.38
2023-01-08T09:56:49.077Z,72.00
2023-01-08T09:59:19.322Z,72.95
2023-01-08T10:01:48.738Z,74.93
2023-01-08T10:04:19.262Z,74.76
2023-01-08T10:06:52.975Z,73.31
2023-01-08T10:09:25.090Z,73.24
2023-01-08T10:11:56.438Z,73.02
2023-01-08T10:14:28.084Z,74.25
2023-01-08T10:16:59.936Z,73.93
2023-01-08T10:19:27.784Z,74.42
2023-01-08T10:21:55.842Z,74.64
2023-01-08T10:24:34.392Z,75.97
2023-01-08T10:27:14.020Z,75.83
2023-01-08T10:29:42.852Z,76.81
2023-01-08T10:32:15.858Z,76.86
2023-01-08T10:34:50.270Z,76.74
2023-01-08T10:37:25.228Z,76.83
2023-01-08T10:39:55.114Z,78.64
2023-01-08T10:42:25.307Z,77.13
2023-01-08T10:44:58.290Z,78.86
2023-01-08T10:47:28.068Z,78.46
2023-01-08T10:49:56.782Z,78.06
2023-01-08T10:52:27.588Z,79.05
2023-01-08T10:54:55.869Z,79.15
2023-01-08T10:57:27.814Z,78.25
2023-01-08T10:59:56.680Z,77.17
2023-01-08T11:02:38.131Z,80.13
2023-01-08T11:05:10.318Z,78.12
2023-01-08T11:07:40.265Z,77.94
2023-01-08T11:10:22.782Z,77.38
2023-01-08T11:12:55.641Z,78.22
2023-01-08T11:15:32.867Z,77.56
2023-01-08T11:18:22.644Z,77.78
2023-01-08T11:20:51.345Z,78.41
2023-01-08T11:23:22.675Z,75.88
2023-01-08T11:25:57.372Z,76.24
2023-01-08T11:28:34.302Z,75.68
2023-01-08T11:31:14.962Z,76.09
2023-01-08T11:33:44.118Z,76.62
2023-01-08T11:36:19.683Z,76.79
2023-01-08T11:38:47.938Z,76.74
2023-01-08T11:41:31.204Z,74.10
2023-01-08T11:44:15.095Z,75.09
2023-01-08T11:47:04.125Z,75.68
2023-01-08T11:49:48.366Z,76.93
2023-01-08T11:52:32.021Z,75.29
2023-01-08T11:55:06.492Z,74.99
2023-01-08T11:57:44.667Z,74.75
2023-01-08T12:00:33.338Z,74.58
2023-01-08T12:03:04.332Z,74.21
2023-01-08T12:05:38.636Z,74.67
2023-01-08T12:08:08.556Z,73.49
2023-01-08T12:10:57.368Z,75.73
2023-01-08T12:13:51.211Z,72.83
2023-01-08T12:16:26.611Z,72.66
2023-01-08T12:19:11.561Z,72.11
2023-01-08T12:21:51.332Z,73.90
2023-01-08T12:24:37.268Z,71.86
2023-01-08T12:27:13.561Z,73.33
2023-01-08T12:30:06.883Z,72.52
2023-01-08T12:32:43.214Z,72.36
2023-01-08T12:35:15.255Z,72.01
2023-01-08T12:37:51.864Z,71.22
2023-01-08T12:40:24.190Z,72.36
2023-01-08T12:43:00.491Z,71.52
2023-01-08T12:45:31.761Z,72.47
2023-01-08T12:48:07.433Z,71.88
2023-01-08T12:50:57.855Z,72.41
2023-01-08T12:53:37.668Z,72.20
2023-01-08T12:56:12.533Z,71.92
2023-01-08T12:58:54.887Z,70.75
2023-01-08T13:01:37.762Z,72.20
2023-01-08T13:04:10.326Z,71.06
2023-01-08T13:06:38.810Z,71.50
2023-01-08T13:09:06.758Z,72.47
2023-01-08T13:11:38.565Z,71.93
2023-01-08T13:14:09.047Z,73.17
2023-01-08T13:16:40.105Z,72.60
2023-01-08T13:19:24.790Z,72.03
2023-01-08T13:21:55.493Z,72.17
2023-01-08T13:24:32.029Z,73.80
2023-01-08T13:27:12.425Z,73.43
2023-01-08T13:29:42.700Z,73.42
2023-01-08T13:32:26.245Z,73.10
2023-01-08T13:35:21.640Z,73.00
2023-01-08T13:37:51.437Z,74.01
2023-01-08T13:40:37.631Z,74.00
2023-01-08T13:43:11.848Z,72.74
2023-01-08T13:45:40.488Z,73.80
2023-01-08T13:48:22.462Z,73.36
2023-01-08T13:50:52.530Z,73.98
2023-01-08T13:53:21.070Z,73.94
2023-01-08T13:55:56.966Z,72.66
2023-01-08T13:58:30.927Z,72.93
2023-01-08T14:01:01.215Z,74.67
2023-01-08T14:03:30.909Z,74.64
2023-01-08T14:06:09.115Z,73.48
2023-01-08T14:08:38.646Z,75.03
2023-01-08T14:11:06.751Z,75.16
2023-01-08T14:13:35.738Z,73.48
2023-01-08T14:16:06.875Z,74.77
2023-01-08T14:18:35.417Z,76.78
2023-01-08T14:21:03.933Z,73.82
2023-01-08T14:23:43.252Z,74.37
2023-01-08T14:26:21.375Z,75.37
2023-01-08T14:28:52.382Z,74.58
2023-01-08T14:31:28.856Z,74.22
2023-01-08T14:34:00.260Z,73.79
2023-01-08T14:36:28.991Z,73.80
2023-01-08T14:38:58.520Z,73.47
2023-01-08T14:41:54.497Z,73.40
2023-01-08T14:44:36.708Z,74.83
2023-01-08T14:47:06.250Z,74.28
2023-01-08T14:49:43.423Z,74.61
2023-01-08T14:52:13.448Z,74.91
2023-01-08T14:54:48.394Z,75.18
2023-01-08T14:57:18.148Z,75.18
2023-01-08T14:59:57.723Z,74.54
2023-01-08T15:02:35.053Z,74.47
2023-01-08T15:05:14.137Z,74.31
2023-01-08T15:07:56.653Z,74.93
2023-01-08T15:10:40.088Z,75.02
2023-01-08T15:13:21.961Z,75.10
2023-01-08T15:15:57.470Z,74.20
2023-01-08T15:18:26.496Z,75.11
2023-01-08T15:20:56.194Z,75.07
2023-01-08T15:23:36.009Z,75.43
2023-01-08T15:26:05.620Z,76.64
2023-01-08T15:28:34.177Z,77.04
2023-01-08T15:31:02.195Z,76.65
2023-01-08T15:33:30.366Z,77.59
2023-01-08T15:35:58.489Z,76.84
2023-01-08T15:38:26.348Z,77.08
2023-01-08T15:40:56.107Z,76.57
2023-01-08T15:43:24.560Z,76.58
2023-01-08T15:45:52.567Z,78.29
2023-01-08T15:48:20.847Z,77.14
2023-01-08T15:50:48.950Z,77.21
2023-01-08T15:53:23.262Z,76.22
2023-01-08T15:55:52.169Z,76.85
2023-01-08T15:58:23.431Z,76.27
2023-01-08T16:00:56.036Z,76.20
2023-01-08T16:03:25.529Z,75.55
2023-01-08T16:05:53.403Z,76.11
2023-01-08T16:08:21.333Z,75.24
2023-01-08T16:10:52.867Z,74.87
2023-01-08T16:13:21.677Z,74.63
2023-01-08T16:15:49.624Z,76.72
2023-01-08T16:18:18.991Z,77.07
2023-01-08T16:20:46.862Z,75.65
2023-01-08T16:23:14.790Z,75.17
2023-01-08T16:25:42.683Z,74.51
2023-01-08T16:28:10.555Z,74.99
2023-01-08T16:30:41.370Z,74.45
2023-01-08T16:33:09.277Z,74.48
2023-01-08T16:35:38.521Z,74.56
2023-01-08T16:38:06.431Z,74.24
2023-01-08T16:40:34.321Z,74.78
2023-01-08T16:43:03.546Z,74.42
2023-01-08T16:45:31.633Z,73.76
2023-01-08T16:47:59.532Z,73.65
2023-01-08T16:50:27.408Z,74.19
2023-01-08T16:52:56.655Z,73.22
2023-01-08T16:55:24.508Z,73.64
2023-01-08T16:57:54.564Z,73.35
2023-01-08T17:00:23.555Z,73.44
2023-01-08T17:02:51.433Z,74.06
2023-01-08T17:05:19.327Z,73.93
2023-01-08T17:07:47.210Z,73.68
2023-01-08T17:10:17.547Z,73.24
2023-01-08T17:12:45.420Z,73.34
2023-01-08T17:15:13.331Z,73.64
2023-01-08T17:17:41.742Z,73.91
2023-01-08T17:20:11.437Z,74.91
2023-01-08T17:22:39.317Z,74.24
2023-01-08T17:25:07.962Z,74.21
2023-01-08T17:27:37.585Z,74.03
2023-01-08T17:30:06.463Z,74.17
2023-01-08T17:32:34.340Z,75.29
2023-01-08T17:35:02.481Z,74.61
2023-01-08T17:37:30.868Z,75.11
2023-01-08T17:39:59.878Z,75.18
2023-01-08T17:42:28.305Z,74.44
2023-01-08T17:45:01.211Z,73.59
2023-01-08T17:47:29.212Z,72.95
2023-01-08T17:49:58.036Z,73.61
2023-01-08T17:52:27.274Z,74.52
2023-01-08T17:54:55.352Z,74.86
2023-01-08T17:57:23.735Z,74.39
2023-01-08T17:59:51.572Z,73.90
2023-01-08T18:02:20.915Z,74.83
2023-01-08T18:04:51.683Z,74.04
2023-01-08T18:07:19.712Z,73.79
2023-01-08T18:09:49.295Z,73.47
2023-01-08T18:12:17.291Z,73.29
2023-01-08T18:14:45.448Z,73.13
2023-01-08T18:17:13.327Z,74.27
2023-01-08T18:19:43.183Z,73.75
2023-01-08T18:22:11.094Z,73.18
2023-01-08T18:24:39.047Z,73.32
2023-01-08T18:27:10.703Z,73.82
2023-01-08T18:29:38.606Z,73.18
2023-01-08T18:32:08.610Z,73.41
2023-01-08T18:34:36.596Z,73.85
2023-01-08T18:37:06.065Z,74.16
2023-01-08T18:39:33.917Z,73.59
2023-01-08T18:42:19.431Z,73.52
2023-01-08T18:44:48.294Z,72.82
2023-01-08T18:47:16.161Z,74.45
2023-01-08T18:49:44.027Z,73.15
2023-01-08T18:52:14.139Z,74.21
2023-01-08T18:54:42.207Z,75.03
2023-01-08T18:57:10.088Z,74.80
2023-01-08T18:59:38.194Z,75.19
2023-01-08T19:02:06.404Z,75.27
2023-01-08T19:04:34.446Z,74.93
2023-01-08T19:07:02.295Z,74.90
2023-01-08T19:09:32.075Z,75.99
2023-01-08T19:12:00.001Z,75.29
2023-01-08T19:14:27.905Z,75.84
2023-01-08T19:16:56.468Z,75.82
2023-01-08T19:19:24.551Z,75.92
2023-01-08T19:21:52.424Z,76.21
2023-01-08T19:24:23.795Z,74.96
2023-01-08T19:26:53.102Z,75.29
2023-01-08T19:29:21.094Z,75.31
2023-01-08T19:31:49.026Z,75.54
2023-01-08T19:34:17.073Z,74.98
2023-01-08T19:36:48.056Z,74.53
2023-01-08T19:39:18.183Z,74.96
2023-01-08T19:42:05.620Z,75.51
2023-01-08T19:44:35.182Z,74.46
2023-01-08T19:47:03.176Z,74.37
2023-01-08T19:49:30.980Z,75.56
2023-01-08T19:51:58.882Z,74.67
2023-01-08T19:54:27.414Z,75.21
2023-01-08T19:56:55.988Z,74.79
2023-01-08T19:59:27.131Z,74.68
2023-01-08T20:01:58.142Z,74.10
2023-01-08T20:04:26.825Z,75.73
2023-01-08T20:06:54.808Z,74.25
2023-01-08T20:09:22.795Z,74.07
2023-01-08T20:11:50.841Z,74.30
2023-01-08T20:14:20.824Z,74.46
2023-01-08T20:16:49.077Z,74.57
2023-01-08T20:19:18.281Z,74.49
2023-01-08T20:21:46.490Z,74.78
2023-01-08T20:24:15.170Z,74.93
2023-01-08T20:26:45.111Z,75.63
2023-01-08T20:29:13.884Z,75.29
2023-01-08T20:31:42.453Z,75.08
2023-01-08T20:34:15.527Z,75.61
2023-01-08T20:36:46.418Z,75.37
2023-01-08T20:39:16.571Z,74.69
2023-01-08T20:41:50.352Z,75.76
2023-01-08T20:44:31.552Z,75.53
2023-01-08T20:46:59.523Z,75.75
2023-01-08T20:49:27.675Z,75.08
2023-01-08T20:51:59.631Z,74.28
2023-01-08T20:54:29.277Z,74.44
2023-01-08T20:56:58.185Z,74.06
2023-01-08T20:59:26.724Z,75.36
2023-01-08T21:01:54.721Z,75.08
2023-01-08T21:04:22.982Z,75.25
2023-01-08T21:06:50.990Z,76.66
2023-01-08T21:09:20.249Z,76.34
2023-01-08T21:11:48.174Z,75.99
2023-01-08T21:14:16.012Z,76.59
2023-01-08T21:16:43.940Z,75.18
2023-01-08T21:19:11.925Z,75.71
2023-01-08T21:21:41.023Z,77.01
2023-01-08T21:24:12.016Z,76.77
2023-01-08T21:26:41.404Z,75.62
2023-01-08T21:29:09.833Z,76.21
2023-01-08T21:31:39.025Z,75.70
2023-01-08T21:34:08.549Z,74.50
2023-01-08T21:36:36.992Z,74.43
2023-01-08T21:39:05.251Z,75.28
2023-01-08T21:41:50.474Z,73.93
2023-01-08T21:44:39.144Z,73.86
2023-01-08T21:47:08.954Z,73.74
2023-01-08T21:49:37.147Z,73.82
2023-01-08T21:52:23.181Z,75.11
2023-01-08T21:54:51.802Z,73.93
2023-01-08T21:57:19.665Z,73.45
2023-01-08T21:59:51.152Z,72.72
2023-01-08T22:02:21.930Z,73.51
2023-01-08T22:04:50.223Z,72.72
2023-01-08T22:07:18.338Z,72.89
2023-01-08T22:09:46.194Z,72.58
2023-01-08T22:12:14.890Z,74.47
2023-01-08T22:14:42.766Z,73.94
2023-01-08T22:17:12.163Z,72.99
2023-01-08T22:19:40.748Z,72.39
2023-01-08T22:22:10.873Z,72.50
2023-01-08T22:24:39.555Z,72.46
2023-01-08T22:27:08.540Z,71.64
2023-01-08T22:29:36.729Z,71.38
2023-01-08T22:32:04.966Z,72.08
2023-01-08T22:34:35.091Z,71.62
2023-01-08T22:37:03.324Z,71.49
2023-01-08T22:39:31.393Z,71.19
2023-01-08T22:41:59.272Z,72.06
2023-01-08T22:44:27.162Z,72.42
2023-01-08T22:46:55.148Z,72.91
2023-01-08T22:49:23.062Z,71.30
2023-01-08T22:51:52.331Z,72.09
2023-01-08T22:54:20.380Z,71.60
2023-01-08T22:56:48.235Z,71.51
2023-01-08T22:59:16.107Z,71.29
2023-01-08T23:01:44.206Z,71.45
2023-01-08T23:04:12.181Z,71.17
2023-01-08T23:06:40.007Z,71.44
2023-01-08T23:09:09.264Z,72.83
2023-01-08T23:11:37.260Z,72.68
2023-01-08T23:14:05.152Z,72.87
2023-01-08T23:16:33.096Z,72.10
2023-01-08T23:19:02.104Z,72.10
2023-01-08T23:21:30.045Z,72.49
2023-01-08T23:23:57.920Z,72.04
2023-01-08T23:26:29.132Z,71.75
2023-01-08T23:28:58.890Z,72.34
2023-01-08T23:31:28.671Z,72.12
2023-01-08T23:33:56.679Z,72.42
2023-01-08T23:36:25.578Z,73.01
2023-01-08T23:38:55.561Z,73.05
2023-01-08T23:41:33.060Z,74.04
2023-01-08T23:44:05.775Z,74.23
2023-01-08T23:46:33.851Z,74.28
2023-01-08T23:49:01.997Z,74.72
2023-01-08T23:51:30.415Z,75.29
2023-01-08T23:53:58.310Z,75.56
2023-01-08T23:56:26.303Z,74.83
2023-01-08T23:58:54.782Z,74.51
